ADDS METAR Data INFO
IDs: Format: Raw Decoded Include TAF

Data at: 0622 UTC 15 Dec 2017

KOLS 150554Z AUTO 01005KT 10SM CLR 10/M09 A3009 RMK AO2 SLP153 T01001089 10172 20078 51017
KOLS 150454Z AUTO 00000KT 10SM CLR 09/M09 A3008 RMK AO2 SLP156 T00891089
KOLS 150354Z AUTO 00000KT 10SM CLR 10/M09 A3006 RMK AO2 SLP150 T01001089
KOLS 150254Z AUTO 36004KT 10SM CLR 11/M09 A3004 RMK AO2 SLP148 T01111094 51023
KOLS 150154Z AUTO 02005KT 10SM CLR 13/M09 A3002 RMK AO2 SLP143 T01281094
KOLS 150054Z AUTO 02007KT 10SM CLR 14/M09 A2999 RMK AO2 SLP130 T01391089
KOLS 142354Z AUTO 26004KT 10SM CLR 17/M09 A2996 RMK AO2 SLP115 T01721089 10200 20172 53003
KOLS 142254Z AUTO 25005KT 10SM CLR 18/M09 A2995 RMK AO2 SLP110 T01831089
KOLS 142154Z AUTO VRB06KT 10SM CLR 19/M08 A2995 RMK AO2 SLP105 T01941083
KOLS 142054Z AUTO 27005KT 10SM CLR 19/M09 A2995 RMK AO2 SLP105 T01941089 56021
KOLS 141954Z AUTO 21009KT 10SM CLR 19/M07 A2997 RMK AO2 SLP110 T01941067
KOLS 141854Z AUTO 23011G17KT 10SM CLR 19/M04 A2999 RMK AO2 SLP117 T01891039
KOLS 141754Z AUTO VRB05KT 10SM CLR 17/M04 A3002 RMK AO2 SLP127 T01721039 10172 20028 50006
KOLS 141654Z AUTO 00000KT 10SM CLR 13/M03 A3002 RMK AO2 SLP136 T01281028
KOLS 141554Z AUTO 00000KT 10SM CLR 11/M03 A3001 RMK AO2 SLP131 T01061028
KOLS 141454Z AUTO 07004KT 10SM CLR 05/M03 A3000 RMK AO2 SLP135 T00501033 53001
KOLS 141354Z AUTO 00000KT 10SM CLR 03/M04 A3000 RMK AO2 SLP134 T00281039
KOLS 141254Z AUTO 15003KT 10SM CLR 05/M03 A3000 RMK AO2 SLP128 T00501033
KOLS 141154Z AUTO 00000KT 10SM CLR 05/M03 A3000 RMK AO2 SLP124 T00501033 10100 20039 56005
KOLS 141054Z AUTO 00000KT 10SM CLR 04/M04 A3000 RMK AO2 SLP122 T00441039
KOLS 140954Z AUTO 00000KT 10SM CLR 07/M03 A3001 RMK AO2 SLP122 T00671033
KOLS 140854Z AUTO 00000KT 10SM CLR 07/M03 A3002 RMK AO2 SLP122 T00671033 58002
KOLS 140754Z AUTO 04004KT 10SM CLR 06/M04 A3002 RMK AO2 SLP126 T00611039
KOLS 140654Z AUTO 05005KT 10SM CLR 07/M04 A3002 RMK AO2 SLP127 T00721039 402330033
KOLS 140554Z AUTO 09005KT 10SM CLR 10/M03 A3002 RMK AO2 SLP126 T01001033 10189 20089 58001
KOLS 140454Z AUTO 10003KT 10SM CLR 09/M03 A3003 RMK AO2 SLP132 T00941033
KOLS 140354Z AUTO 08005KT 10SM CLR 10/M03 A3003 RMK AO2 SLP140 T01001033
KOLS 140254Z AUTO 15004KT 10SM CLR 12/M03 A3002 RMK AO2 SLP143 T01171033 53008
KOLS 140154Z AUTO 07003KT 10SM FEW100 13/M03 A3002 RMK AO2 SLP140 T01331028
KOLS 140054Z AUTO 19004KT 10SM SCT100 16/M02 A3000 RMK AO2 SLP131 T01561022
KOLS 132354Z AUTO 25004KT 10SM CLR 19/M02 A3000 RMK AO2 SLP124 T01891022 10233 20183 55004
KOLS 132254Z AUTO 00000KT 10SM CLR 22/M02 A3000 RMK AO2 SLP118 T02171022
KOLS 132154Z AUTO 28005KT 10SM CLR 22/M01 A3000 RMK AO2 SLP119 T02171011
KOLS 132054Z AUTO 31005KT 10SM CLR 23/M03 A3001 RMK AO2 SLP123 T02281028 56030
KOLS 131954Z AUTO 25005KT 10SM CLR 22/M04 A3004 RMK AO2 SLP130 T02171039
KOLS 131854Z AUTO VRB04KT 10SM CLR 21/M03 A3008 RMK AO2 SLP143 T02061028